createdAt,value
2023-03-14T00:00:03.690Z,2542.00
2023-03-14T00:01:03.649Z,2505.00
2023-03-14T00:02:03.620Z,2514.00
2023-03-14T00:03:03.619Z,2512.00
2023-03-14T00:04:03.573Z,2494.00
2023-03-14T00:05:03.576Z,2511.00
2023-03-14T00:06:03.513Z,2399.00
2023-03-14T00:07:03.494Z,2396.00
2023-03-14T00:08:03.477Z,2432.00
2023-03-14T00:09:03.452Z,2492.00
2023-03-14T00:10:03.429Z,2432.00
2023-03-14T00:11:03.399Z,2465.00
2023-03-14T00:12:03.389Z,2467.00
2023-03-14T00:13:03.360Z,2493.00
2023-03-14T00:14:03.326Z,2493.00
2023-03-14T00:15:03.308Z,2481.00
2023-03-14T00:16:03.370Z,2519.00
2023-03-14T00:17:03.244Z,2525.00
2023-03-14T00:18:03.223Z,2505.00
2023-03-14T00:19:03.203Z,2509.00
2023-03-14T00:20:03.175Z,2522.00
2023-03-14T00:21:03.160Z,2535.00
2023-03-14T00:22:03.128Z,2419.00
2023-03-14T00:23:03.110Z,2478.00
2023-03-14T00:24:03.096Z,2473.00
2023-03-14T00:25:03.073Z,2367.00
2023-03-14T00:26:03.049Z,2413.00
2023-03-14T00:27:03.034Z,2421.00
2023-03-14T00:28:02.996Z,2460.00
2023-03-14T00:29:03.013Z,2488.00
2023-03-14T00:30:02.974Z,2462.00
2023-03-14T00:31:03.019Z,2389.00
2023-03-14T00:32:02.943Z,2396.00
2023-03-14T00:33:02.944Z,2356.00
2023-03-14T00:34:02.905Z,2407.00
2023-03-14T00:35:02.900Z,2406.00
2023-03-14T00:36:02.959Z,2388.00
2023-03-14T00:37:02.847Z,2300.00
2023-03-14T00:38:02.816Z,2315.00
2023-03-14T00:39:02.824Z,2384.00
2023-03-14T00:40:02.788Z,2415.00
2023-03-14T00:41:02.796Z,2440.00
2023-03-14T00:42:02.730Z,2442.00
2023-03-14T00:43:02.761Z,2443.00
2023-03-14T00:44:02.724Z,2387.00
2023-03-14T00:45:02.687Z,2338.00
2023-03-14T00:46:02.669Z,2373.00
2023-03-14T00:47:02.666Z,2371.00
2023-03-14T00:48:02.624Z,2409.00
2023-03-14T00:49:02.596Z,2396.00
2023-03-14T00:50:02.589Z,2402.00
2023-03-14T00:51:02.573Z,2410.00
2023-03-14T00:52:02.547Z,2429.00
2023-03-14T00:53:02.523Z,2400.00
2023-03-14T00:56:02.467Z,2351.00
2023-03-14T01:00:02.391Z,2391.00
2023-03-14T01:01:02.374Z,2413.00
2023-03-14T01:03:02.356Z,2412.00
2023-03-14T01:06:02.266Z,2327.00
2023-03-14T01:07:02.270Z,2352.00
2023-03-14T01:08:02.223Z,2361.00
2023-03-14T01:09:02.213Z,2335.00
2023-03-14T01:10:02.209Z,2324.00
2023-03-14T01:13:02.168Z,2292.00
2023-03-14T01:15:02.098Z,2368.00
2023-03-14T01:16:02.134Z,2391.00
2023-03-14T01:17:02.173Z,2387.00
2023-03-14T01:18:02.114Z,2393.00
2023-03-14T01:19:02.011Z,2389.00
2023-03-14T01:20:02.180Z,2416.00
2023-03-14T01:21:01.979Z,2372.00
2023-03-14T01:22:01.933Z,2374.00
2023-03-14T01:23:01.937Z,2380.00
2023-03-14T01:24:01.924Z,2388.00
2023-03-14T01:25:01.876Z,2402.00
2023-03-14T01:26:01.896Z,2369.00
2023-03-14T01:27:01.864Z,2312.00
2023-03-14T01:28:01.859Z,2323.00
2023-03-14T01:29:01.836Z,2372.00
2023-03-14T01:30:01.843Z,2402.00
2023-03-14T01:32:01.858Z,2433.00
2023-03-14T01:33:01.814Z,2407.00
2023-03-14T01:34:01.777Z,2365.00
2023-03-14T06:21:57.195Z,2325.00
2023-03-14T06:22:57.145Z,2304.00
2023-03-14T06:23:57.105Z,2279.00
2023-03-14T06:24:57.092Z,2274.00
2023-03-14T06:25:57.051Z,2305.00
2023-03-14T06:26:57.026Z,2294.00
2023-03-14T06:27:57.108Z,2302.00
2023-03-14T06:28:56.986Z,2305.00
2023-03-14T06:29:56.987Z,2309.00
2023-03-14T06:30:57.156Z,2288.00
2023-03-14T06:31:56.921Z,2310.00
2023-03-14T06:32:56.950Z,2299.00
2023-03-14T06:33:56.858Z,2296.00
2023-03-14T06:34:56.842Z,2335.00
2023-03-14T06:35:56.821Z,2345.00
2023-03-14T06:36:56.807Z,2372.00
2023-03-14T06:37:56.766Z,2394.00
2023-03-14T06:38:56.748Z,2467.00
2023-03-14T06:39:56.731Z,2618.00
2023-03-14T06:40:56.682Z,2629.00
2023-03-14T06:41:56.666Z,2646.00
2023-03-14T06:42:56.634Z,2672.00
2023-03-14T06:43:56.831Z,2674.00
2023-03-14T06:44:56.581Z,2818.00
2023-03-14T06:45:56.611Z,2857.00
2023-03-14T06:46:56.628Z,2862.00
2023-03-14T06:47:56.524Z,2870.00
2023-03-14T06:48:56.496Z,2907.00
2023-03-14T06:49:56.480Z,2918.00
2023-03-14T06:50:56.596Z,2910.00
2023-03-14T06:51:56.451Z,2879.00
2023-03-14T06:52:56.445Z,2924.00
2023-03-14T06:53:56.392Z,2953.00
2023-03-14T06:54:56.321Z,2961.00
2023-03-14T06:55:56.299Z,2976.00
2023-03-14T06:56:56.272Z,3039.00
2023-03-14T06:57:56.252Z,3060.00
2023-03-14T06:58:56.240Z,3039.00
2023-03-14T06:59:56.245Z,3007.00
2023-03-14T07:00:56.274Z,3005.00
2023-03-14T07:01:56.222Z,2980.00
2023-03-14T07:02:56.096Z,2953.00
2023-03-14T07:03:56.057Z,2953.00
2023-03-14T07:04:56.788Z,2968.00
2023-03-14T07:05:56.048Z,2952.00
2023-03-14T07:06:56.018Z,2970.00
2023-03-14T07:07:55.973Z,2952.00
2023-03-14T07:08:56.004Z,2916.00
2023-03-14T07:09:56.068Z,2940.00
2023-03-14T07:10:55.829Z,2940.00
2023-03-14T07:11:55.841Z,2915.00
2023-03-14T07:12:55.797Z,2920.00
2023-03-14T07:13:55.767Z,2906.00
2023-03-14T07:14:57.622Z,2906.00
2023-03-14T07:15:55.750Z,2909.00
2023-03-14T07:16:55.696Z,2913.00
2023-03-14T07:17:55.662Z,2940.00
2023-03-14T07:18:55.634Z,2952.00
2023-03-14T07:19:55.647Z,3056.00
2023-03-14T07:20:55.600Z,3171.00
2023-03-14T07:21:55.624Z,3114.00
2023-03-14T07:22:55.650Z,3129.00
2023-03-14T07:23:55.512Z,3329.00
2023-03-14T07:24:55.482Z,3542.00
2023-03-14T07:25:55.446Z,3451.00
2023-03-14T07:26:55.561Z,3395.00
2023-03-14T07:27:55.408Z,3320.00
2023-03-14T07:28:55.416Z,3294.00
2023-03-14T07:29:55.416Z,3287.00
2023-03-14T07:30:55.361Z,3256.00
2023-03-14T07:31:55.321Z,3230.00
2023-03-14T07:32:55.352Z,3256.00
2023-03-14T07:33:55.246Z,3239.00
2023-03-14T07:34:55.224Z,3244.00
2023-03-14T07:35:55.223Z,3272.00
2023-03-14T07:36:55.179Z,3285.00
2023-03-14T07:37:55.160Z,3337.00
2023-03-14T07:38:55.128Z,3509.00
2023-03-14T07:39:55.056Z,3580.00
2023-03-14T07:40:55.064Z,3562.00
2023-03-14T07:41:55.027Z,3541.00
2023-03-14T07:42:55.050Z,3539.00
2023-03-14T07:43:55.003Z,3532.00
2023-03-14T07:44:55.048Z,3532.00
2023-03-14T07:45:59.077Z,3567.00
2023-03-14T07:46:54.915Z,3569.00
2023-03-14T07:47:54.843Z,3574.00
2023-03-14T07:48:54.789Z,3591.00
2023-03-14T07:49:54.766Z,3619.00
2023-03-14T07:50:54.721Z,3661.00
2023-03-14T07:51:54.715Z,3666.00
2023-03-14T07:52:54.669Z,3667.00
2023-03-14T07:53:54.642Z,3668.00
2023-03-14T07:54:54.594Z,3669.00
2023-03-14T07:55:54.563Z,3667.00
2023-03-14T07:56:54.537Z,3677.00
2023-03-14T07:57:54.495Z,3697.00
2023-03-14T07:58:54.457Z,3705.00
2023-03-14T07:59:54.460Z,3719.00
2023-03-14T08:00:54.399Z,3704.00
2023-03-14T08:01:54.385Z,3702.00
2023-03-14T08:02:54.442Z,3706.00
2023-03-14T08:03:54.451Z,3702.00
2023-03-14T08:04:54.333Z,3770.00
2023-03-14T08:05:54.255Z,3803.00
2023-03-14T08:06:54.223Z,3841.00
2023-03-14T08:07:54.216Z,3833.00
2023-03-14T08:08:54.257Z,3825.00
2023-03-14T08:09:54.168Z,3823.00
2023-03-14T08:10:54.167Z,3820.00
2023-03-14T08:11:54.090Z,3797.00
2023-03-14T08:12:54.110Z,3799.00
2023-03-14T08:13:54.132Z,3794.00
2023-03-14T08:14:54.013Z,3789.00
2023-03-14T08:15:54.431Z,3791.00
2023-03-14T08:16:54.230Z,3794.00
2023-03-14T08:17:53.912Z,3807.00
2023-03-14T08:18:53.987Z,3833.00
2023-03-14T08:19:53.982Z,3846.00
2023-03-14T08:20:53.836Z,3808.00
2023-03-14T08:21:53.908Z,3813.00
2023-03-14T08:22:53.801Z,3785.00
2023-03-14T08:23:53.877Z,3764.00
2023-03-14T08:24:53.752Z,3776.00
2023-03-14T08:25:53.710Z,3759.00
2023-03-14T08:26:53.679Z,3752.00
2023-03-14T08:27:53.787Z,3729.00
2023-03-14T08:28:54.088Z,3718.00
2023-03-14T08:29:53.610Z,3732.00
2023-03-14T08:30:53.637Z,3739.00
2023-03-14T08:31:53.614Z,3726.00
2023-03-14T08:32:54.460Z,3728.00
2023-03-14T08:33:53.450Z,3722.00
2023-03-14T08:34:53.557Z,3727.00
2023-03-14T08:35:53.426Z,3714.00
2023-03-14T08:36:53.387Z,3696.00
2023-03-14T08:37:53.320Z,3689.00
2023-03-14T08:38:53.482Z,3629.00
2023-03-14T08:39:53.264Z,3595.00
2023-03-14T08:40:53.235Z,3585.00
2023-03-14T08:41:53.184Z,3604.00
2023-03-14T08:42:53.140Z,3590.00
2023-03-14T08:43:53.142Z,3544.00
2023-03-14T08:44:53.134Z,3528.00
2023-03-14T08:45:53.100Z,3514.00
2023-03-14T08:46:53.124Z,3500.00
2023-03-14T08:47:53.025Z,3491.00
2023-03-14T08:48:52.979Z,3450.00
2023-03-14T08:49:53.124Z,3450.00
2023-03-14T08:50:52.884Z,3407.00
2023-03-14T08:51:52.841Z,3410.00
2023-03-14T08:52:53.853Z,3395.00
2023-03-14T08:53:52.813Z,3377.00
2023-03-14T08:54:52.713Z,3362.00
2023-03-14T08:55:52.690Z,3320.00
2023-03-14T08:56:52.639Z,3298.00
2023-03-14T08:57:52.625Z,3302.00
2023-03-14T08:58:52.845Z,3316.00
2023-03-14T08:59:52.541Z,3315.00
2023-03-14T09:00:52.591Z,3304.00
2023-03-14T09:01:52.730Z,3281.00
2023-03-14T09:02:52.574Z,3240.00
2023-03-14T09:03:52.481Z,3244.00
2023-03-14T09:04:52.314Z,3228.00
2023-03-14T09:05:52.379Z,3231.00
2023-03-14T09:06:52.264Z,3192.00
2023-03-14T09:07:52.799Z,3159.00
2023-03-14T09:08:52.328Z,3116.00
2023-03-14T09:09:52.199Z,3118.00
2023-03-14T09:10:52.299Z,3092.00
2023-03-14T09:11:52.054Z,3064.00
2023-03-14T09:12:51.993Z,3027.00
2023-03-14T09:13:51.966Z,3045.00
2023-03-14T09:14:51.952Z,3008.00
2023-03-14T09:15:51.897Z,2972.00
2023-03-14T09:16:51.923Z,2971.00
2023-03-14T09:17:51.826Z,2949.00
2023-03-14T09:18:51.800Z,2944.00
2023-03-14T09:19:51.768Z,2939.00
2023-03-14T09:20:51.735Z,2928.00
2023-03-14T09:21:51.663Z,2937.00
2023-03-14T09:22:51.643Z,2956.00
2023-03-14T09:23:51.722Z,2932.00
2023-03-14T09:24:51.586Z,2937.00
2023-03-14T09:25:51.539Z,2909.00
2023-03-14T09:26:51.489Z,2921.00
2023-03-14T09:27:51.487Z,2941.00
2023-03-14T09:28:51.418Z,2908.00
2023-03-14T09:29:51.371Z,2906.00
2023-03-14T09:30:51.448Z,2882.00
2023-03-14T09:31:51.440Z,2839.00
2023-03-14T09:32:51.304Z,2864.00
2023-03-14T09:33:51.205Z,2835.00
2023-03-14T09:34:51.227Z,2868.00
2023-03-14T09:35:51.199Z,2856.00
2023-03-14T09:36:51.113Z,2855.00
2023-03-14T09:37:51.122Z,2849.00
2023-03-14T09:38:51.109Z,2832.00
2023-03-14T09:39:51.009Z,2826.00
2023-03-14T09:40:51.014Z,2805.00
2023-03-14T09:41:50.913Z,2563.00
2023-03-14T09:42:50.914Z,1815.00
2023-03-14T09:43:50.881Z,1308.00
2023-03-14T09:44:50.881Z,1003.00
2023-03-14T09:45:50.981Z,964.00
2023-03-14T09:46:50.820Z,1205.00
2023-03-14T09:47:59.047Z,1269.00
2023-03-14T09:48:51.779Z,1255.00
2023-03-14T09:49:50.878Z,1122.00
2023-03-14T09:50:50.731Z,1091.00
2023-03-14T09:51:50.683Z,974.00
2023-03-14T09:52:50.720Z,920.00
2023-03-14T09:53:50.636Z,841.00
2023-03-14T09:54:50.653Z,694.00
2023-03-14T09:55:50.677Z,665.00
2023-03-14T09:56:50.600Z,617.00
2023-03-14T09:57:50.556Z,577.00
2023-03-14T09:58:50.555Z,557.00
2023-03-14T09:59:50.527Z,551.00
2023-03-14T10:00:50.579Z,568.00
2023-03-14T10:01:50.668Z,599.00
2023-03-14T10:02:50.511Z,594.00
2023-03-14T10:03:50.494Z,596.00
2023-03-14T10:04:50.498Z,571.00
2023-03-14T10:05:50.477Z,568.00
2023-03-14T10:06:50.431Z,572.00
2023-03-14T10:07:50.430Z,581.00
2023-03-14T10:08:50.430Z,547.00
2023-03-14T10:09:50.849Z,533.00
2023-03-14T10:10:50.396Z,567.00
2023-03-14T10:11:50.465Z,646.00
2023-03-14T10:12:50.394Z,687.00
2023-03-14T10:13:50.342Z,678.00
2023-03-14T10:14:50.343Z,737.00
2023-03-14T10:16:50.360Z,652.00
2023-03-14T10:17:50.346Z,628.00
2023-03-14T10:18:50.282Z,586.00
2023-03-14T10:19:50.280Z,545.00
2023-03-14T10:20:50.275Z,543.00
2023-03-14T13:40:43.847Z,1833.00
2023-03-14T13:41:43.812Z,1844.00
2023-03-14T13:42:43.826Z,1838.00
2023-03-14T13:43:43.706Z,1851.00
2023-03-14T13:44:43.660Z,1850.00
2023-03-14T13:45:43.632Z,1838.00
2023-03-14T13:46:43.614Z,1845.00
2023-03-14T13:47:43.548Z,1848.00
2023-03-14T13:48:43.523Z,1859.00
2023-03-14T13:49:43.494Z,1862.00
2023-03-14T13:50:44.274Z,1832.00
2023-03-14T13:51:43.391Z,1845.00
2023-03-14T13:52:43.361Z,1834.00
2023-03-14T13:53:43.325Z,1821.00
2023-03-14T13:54:43.293Z,1839.00
2023-03-14T13:55:43.237Z,1843.00
2023-03-14T13:56:43.225Z,1865.00
2023-03-14T13:57:43.192Z,1841.00
2023-03-14T13:58:43.201Z,1826.00
2023-03-14T13:59:43.131Z,1827.00
2023-03-14T14:00:43.094Z,1842.00
2023-03-14T14:01:43.110Z,1832.00
2023-03-14T14:02:42.971Z,1837.00
2023-03-14T14:03:42.953Z,1818.00
2023-03-14T14:04:43.066Z,1825.00
2023-03-14T14:05:42.872Z,1838.00
2023-03-14T14:06:42.836Z,1833.00
2023-03-14T14:07:42.787Z,1839.00
2023-03-14T14:08:42.757Z,1839.00
2023-03-14T14:09:42.798Z,1844.00
2023-03-14T14:10:43.425Z,1858.00
2023-03-14T14:11:50.870Z,1857.00
2023-03-14T14:12:43.632Z,1857.00
2023-03-14T14:13:42.596Z,1857.00
2023-03-14T14:14:42.590Z,1850.00
2023-03-14T14:15:42.554Z,1813.00
2023-03-14T14:16:43.434Z,1832.00
2023-03-14T14:17:42.736Z,1836.00
2023-03-14T14:18:42.924Z,1834.00
2023-03-14T14:19:42.486Z,1804.00
2023-03-14T14:20:42.458Z,1806.00
2023-03-14T14:21:42.411Z,1802.00
2023-03-14T14:22:42.437Z,1772.00
2023-03-14T14:23:42.252Z,1777.00
2023-03-14T14:24:42.225Z,1771.00
2023-03-14T14:25:42.184Z,1771.00
2023-03-14T14:26:42.186Z,1776.00
2023-03-14T14:27:42.163Z,1774.00
2023-03-14T14:28:42.074Z,1776.00
2023-03-14T14:29:42.069Z,1751.00
2023-03-14T14:30:42.023Z,1745.00
2023-03-14T14:31:42.042Z,1710.00
2023-03-14T14:32:41.978Z,1734.00
2023-03-14T14:33:41.924Z,1742.00
2023-03-14T14:34:41.903Z,1752.00
2023-03-14T14:35:41.853Z,1759.00
2023-03-14T14:36:41.825Z,1759.00
2023-03-14T14:37:41.801Z,1760.00
2023-03-14T14:38:41.753Z,1766.00
2023-03-14T14:39:41.728Z,1765.00
2023-03-14T15:07:41.534Z,1680.00
2023-03-14T15:08:41.588Z,1677.00
2023-03-14T15:09:41.600Z,1666.00
2023-03-14T15:10:41.761Z,1643.00
2023-03-14T15:11:41.720Z,1632.00
2023-03-14T15:12:41.744Z,1623.00
2023-03-14T15:13:41.781Z,1659.00
2023-03-14T15:14:41.823Z,1656.00
2023-03-14T15:15:41.862Z,1648.00
2023-03-14T15:16:42.016Z,1677.00
2023-03-14T15:17:41.997Z,1675.00
2023-03-14T15:18:41.993Z,1664.00
2023-03-14T15:19:42.065Z,1647.00
2023-03-14T15:20:42.097Z,1643.00
2023-03-14T15:21:42.135Z,1634.00
2023-03-14T15:22:42.179Z,1623.00
2023-03-14T15:23:42.242Z,1621.00
2023-03-14T15:24:42.282Z,1624.00
2023-03-14T15:25:55.134Z,1611.00
2023-03-14T15:26:43.305Z,1612.00
2023-03-14T15:27:42.282Z,1611.00
2023-03-14T15:28:42.300Z,1603.00
2023-03-14T15:29:42.265Z,1603.00
2023-03-14T15:30:42.250Z,1612.00
2023-03-14T15:31:42.337Z,1615.00
2023-03-14T15:32:42.283Z,1609.00
2023-03-14T15:33:42.209Z,1593.00
2023-03-14T15:34:42.215Z,1551.00
2023-03-14T15:35:42.240Z,1545.00
2023-03-14T15:36:42.186Z,1560.00
2023-03-14T15:37:42.158Z,1597.00
2023-03-14T15:38:42.165Z,1552.00
2023-03-14T15:39:42.133Z,1589.00
2023-03-14T15:40:42.134Z,1617.00
2023-03-14T15:41:42.963Z,1604.00
2023-03-14T15:42:42.102Z,1529.00
2023-03-14T15:43:42.096Z,1567.00
2023-03-14T15:44:42.100Z,1585.00
2023-03-14T15:45:42.190Z,1554.00
2023-03-14T15:46:42.069Z,1548.00
2023-03-14T15:47:42.039Z,1542.00
2023-03-14T15:48:42.035Z,1558.00
2023-03-14T15:49:42.047Z,1560.00
2023-03-14T15:50:42.010Z,1563.00
2023-03-14T15:51:41.976Z,1582.00
2023-03-14T15:52:41.949Z,1554.00
2023-03-14T15:53:41.915Z,1521.00
2023-03-14T15:54:41.880Z,1534.00
2023-03-14T15:55:41.850Z,1570.00
2023-03-14T15:56:41.818Z,1565.00
2023-03-14T15:57:41.794Z,1544.00
2023-03-14T15:58:41.785Z,1542.00
2023-03-14T15:59:41.725Z,1494.00
2023-03-14T16:40:40.815Z,1501.00
2023-03-14T16:43:40.698Z,1439.00
2023-03-14T18:18:41.019Z,1197.00
2023-03-14T21:20:34.568Z,1204.00
2023-03-14T21:21:34.536Z,1205.00
2023-03-14T21:22:34.503Z,1211.00
2023-03-14T21:23:34.487Z,1205.00
2023-03-14T21:24:34.555Z,1212.00
2023-03-14T21:25:34.428Z,1194.00
2023-03-14T21:26:34.399Z,1213.00
2023-03-14T21:27:34.374Z,1212.00
2023-03-14T21:28:34.417Z,1214.00
2023-03-14T21:29:34.331Z,1215.00
2023-03-14T21:30:34.321Z,1216.00
2023-03-14T21:31:34.341Z,1209.00
2023-03-14T21:32:34.298Z,1214.00
2023-03-14T21:33:34.224Z,1216.00
2023-03-14T21:34:34.205Z,1209.00
2023-03-14T21:35:34.217Z,1212.00
2023-03-14T21:36:34.144Z,1203.00
2023-03-14T21:37:34.122Z,1204.00
2023-03-14T21:38:34.098Z,1207.00
2023-03-14T21:39:34.095Z,1215.00
2023-03-14T21:40:34.082Z,1210.00
2023-03-14T21:41:34.034Z,1206.00
2023-03-14T21:42:34.020Z,1192.00
2023-03-14T21:43:33.980Z,1203.00
2023-03-14T21:44:33.954Z,1190.00
2023-03-14T21:45:33.922Z,1196.00
2023-03-14T21:46:33.990Z,1197.00
2023-03-14T21:47:33.893Z,1196.00
2023-03-14T21:48:33.863Z,1204.00
2023-03-14T21:49:33.833Z,1206.00
2023-03-14T21:50:33.822Z,1183.00
2023-03-14T21:51:33.794Z,1199.00
2023-03-14T21:52:33.791Z,1195.00
2023-03-14T21:53:33.758Z,1187.00
2023-03-14T21:54:33.731Z,1186.00
2023-03-14T21:55:33.694Z,1175.00
2023-03-14T21:56:33.698Z,1168.00
2023-03-14T21:57:33.660Z,1155.00
2023-03-14T21:58:33.637Z,1156.00
2023-03-14T21:59:33.627Z,1168.00
2023-03-14T22:00:33.587Z,1153.00
2023-03-14T22:01:33.603Z,1148.00
2023-03-14T22:02:33.648Z,1126.00
2023-03-14T22:03:33.559Z,1146.00
2023-03-14T22:04:33.501Z,1122.00
2023-03-14T22:05:33.476Z,1104.00
2023-03-14T22:06:33.450Z,1095.00
2023-03-14T22:07:33.440Z,1094.00
2023-03-14T22:08:33.406Z,1085.00
2023-03-14T22:09:33.375Z,1082.00
2023-03-14T22:10:33.347Z,1091.00
2023-03-14T22:11:33.324Z,1086.00
2023-03-14T22:12:33.325Z,1075.00
2023-03-14T22:13:33.273Z,1079.00
2023-03-14T22:14:33.252Z,1073.00
2023-03-14T22:15:33.242Z,1084.00
2023-03-14T22:16:33.296Z,1078.00
2023-03-14T22:17:33.226Z,1073.00
2023-03-14T22:18:33.250Z,1067.00
2023-03-14T22:19:33.189Z,1064.00
2023-03-14T22:20:33.223Z,1060.00
2023-03-14T22:21:33.198Z,1046.00
2023-03-14T22:22:33.077Z,1058.00
2023-03-14T22:23:33.023Z,1059.00
2023-03-14T22:24:33.007Z,1047.00
2023-03-14T22:25:32.972Z,1035.00
2023-03-14T22:26:32.949Z,1048.00
2023-03-14T22:27:32.957Z,1052.00
2023-03-14T22:28:32.916Z,1048.00
2023-03-14T22:29:32.925Z,1035.00
2023-03-14T22:30:32.961Z,1024.00
2023-03-14T22:31:32.998Z,1021.00
2023-03-14T22:32:32.926Z,1029.00
2023-03-14T22:33:32.859Z,1029.00
2023-03-14T22:34:32.864Z,1029.00
2023-03-14T22:35:32.787Z,1021.00
2023-03-14T22:36:32.749Z,1031.00
2023-03-14T22:37:32.752Z,1008.00
2023-03-14T22:38:32.698Z,1001.00
2023-03-14T22:39:32.667Z,1004.00
2023-03-14T22:40:32.640Z,999.00
2023-03-14T22:41:32.618Z,999.00
2023-03-14T22:42:32.597Z,967.00
2023-03-14T22:43:32.571Z,979.00
2023-03-14T22:44:32.549Z,975.00
2023-03-14T22:45:32.531Z,956.00
2023-03-14T22:46:32.505Z,967.00
2023-03-14T22:47:32.516Z,966.00
2023-03-14T22:48:32.450Z,966.00
2023-03-14T22:49:32.446Z,961.00
2023-03-14T22:50:32.408Z,955.00
2023-03-14T22:51:32.386Z,954.00
2023-03-14T22:52:32.393Z,973.00
2023-03-14T22:53:32.322Z,958.00
2023-03-14T22:54:32.313Z,960.00
2023-03-14T22:55:32.276Z,931.00
2023-03-14T22:56:32.249Z,944.00
2023-03-14T22:57:32.276Z,936.00
2023-03-14T22:58:32.199Z,942.00
2023-03-14T22:59:32.180Z,907.00
2023-03-14T23:00:32.160Z,907.00
2023-03-14T23:01:32.134Z,924.00
2023-03-14T23:02:32.093Z,919.00
2023-03-14T23:03:32.064Z,915.00
2023-03-14T23:04:32.035Z,914.00
2023-03-14T23:05:32.000Z,917.00
2023-03-14T23:06:31.989Z,921.00
2023-03-14T23:07:31.960Z,909.00
2023-03-14T23:08:31.929Z,899.00
2023-03-14T23:09:31.900Z,893.00
2023-03-14T23:10:31.894Z,896.00
2023-03-14T23:11:31.840Z,895.00
2023-03-14T23:12:31.853Z,879.00
2023-03-14T23:13:31.914Z,873.00
2023-03-14T23:14:31.787Z,851.00
2023-03-14T23:15:31.782Z,839.00
2023-03-14T23:16:40.029Z,848.00
2023-03-14T23:17:32.703Z,849.00
